Time;durP1;ratioP1;P1;durP2;ratioP2;P2;SDS_P1;SDS_P2;PMS_P1;PMS_P2;Temp;Humidity;BMP_temperature;BMP_pressure;BME280_temperature;BME280_humidity;BME280_pressure;Samples;Min_cycle;Max_cycle;Signal;HPM_P1;HPM_P2
2023/08/11 00:00:36;;;;;;;6.00;5.60;;;16.50;99.90;;;;;;4989884;28;20472;-70
2023/08/11 00:03:05;;;;;;;6.10;5.47;;;16.40;99.90;;;;;;4990501;28;20188;-69
2023/08/11 00:05:36;;;;;;;6.73;6.13;;;16.40;99.90;;;;;;4992039;28;20270;-69
2023/08/11 00:08:01;;;;;;;5.80;4.87;;;16.40;99.90;;;;;;4994252;28;20481;-69
2023/08/11 00:10:27;;;;;;;6.37;5.77;;;16.40;99.90;;;;;;4991986;28;20979;-69
2023/08/11 00:12:53;;;;;;;6.27;5.33;;;16.40;99.90;;;;;;4994189;28;20180;-68
2023/08/11 00:15:18;;;;;;;6.20;4.90;;;16.30;99.90;;;;;;4993618;28;20175;-69
2023/08/11 00:17:44;;;;;;;4.87;4.47;;;16.30;99.90;;;;;;4993337;28;20194;-69
2023/08/11 00:20:09;;;;;;;5.67;5.27;;;16.30;99.90;;;;;;4993234;28;20697;-68
2023/08/11 00:22:37;;;;;;;6.43;5.83;;;16.30;99.90;;;;;;4994256;28;20218;-70
2023/08/11 00:25:03;;;;;;;7.13;5.03;;;16.30;99.90;;;;;;4993457;28;20187;-69
2023/08/11 00:27:29;;;;;;;5.70;5.20;;;16.20;99.90;;;;;;4994656;28;20513;-69
2023/08/11 00:29:56;;;;;;;7.90;5.83;;;16.20;99.90;;;;;;4993450;28;20582;-69
2023/08/11 00:32:21;;;;;;;5.60;5.20;;;16.20;99.90;;;;;;4994661;28;20661;-69
2023/08/11 00:34:47;;;;;;;5.50;5.07;;;16.10;99.90;;;;;;4993270;28;20526;-69
2023/08/11 00:37:13;;;;;;;6.30;5.67;;;16.00;99.90;;;;;;4993880;28;20211;-69
2023/08/11 00:39:39;;;;;;;6.40;5.40;;;16.00;99.90;;;;;;4993829;28;20257;-68
2023/08/11 00:42:05;;;;;;;8.33;5.40;;;16.00;99.90;;;;;;4994752;28;20430;-68
2023/08/11 00:44:31;;;;;;;5.60;5.10;;;16.10;99.90;;;;;;4993296;28;20186;-68
2023/08/11 00:46:57;;;;;;;5.63;5.13;;;16.00;99.90;;;;;;4993129;28;20517;-68
2023/08/11 00:49:23;;;;;;;8.80;5.80;;;16.20;99.90;;;;;;4994352;28;21002;-69
2023/08/11 00:51:50;;;;;;;6.10;4.67;;;16.10;99.90;;;;;;4993591;28;20859;-69
2023/08/11 00:54:16;;;;;;;5.60;5.10;;;16.10;99.90;;;;;;4993308;28;20760;-68
2023/08/11 00:56:44;;;;;;;4.90;4.50;;;16.00;99.90;;;;;;4991559;28;20451;-69
2023/08/11 00:59:12;;;;;;;9.13;6.50;;;15.90;99.90;;;;;;4990927;28;20470;-69
2023/08/11 01:01:37;;;;;;;6.43;5.87;;;15.80;99.90;;;;;;4985749;28;20434;-69
2023/08/11 01:04:04;;;;;;;9.40;5.17;;;15.60;99.90;;;;;;4985450;28;20446;-69
2023/08/11 01:06:44;;;;;;;5.43;5.03;;;15.80;99.90;;;;;;4988655;28;20649;-70
2023/08/11 01:09:25;;;;;;;5.50;5.10;;;15.70;99.90;;;;;;4988941;28;20458;-69
2023/08/11 01:12:06;;;;;;;5.20;4.80;;;15.70;99.90;;;;;;4987167;28;20522;-69
2023/08/11 01:14:39;;;;;;;5.87;5.20;;;15.70;99.90;;;;;;4986193;28;20462;-71
2023/08/11 01:17:09;;;;;;;5.80;5.13;;;15.70;99.90;;;;;;4986357;28;20972;-69
2023/08/11 01:19:36;;;;;;;5.10;4.10;;;15.60;99.90;;;;;;4988023;28;21000;-69
2023/08/11 01:22:03;;;;;;;6.43;4.83;;;15.70;99.90;;;;;;4984887;28;20951;-69
2023/08/11 01:24:30;;;;;;;6.90;4.90;;;15.70;99.90;;;;;;4987693;28;20444;-69
2023/08/11 01:26:57;;;;;;;6.03;5.43;;;15.70;99.90;;;;;;4987396;28;20578;-69
2023/08/11 01:29:23;;;;;;;5.37;4.87;;;15.70;99.90;;;;;;4986975;28;20479;-69
2023/08/11 01:31:50;;;;;;;6.80;4.80;;;15.70;99.90;;;;;;4987516;28;20435;-69
2023/08/11 01:34:16;;;;;;;5.30;4.77;;;15.70;99.90;;;;;;4993949;28;20514;-69
2023/08/11 01:36:42;;;;;;;5.07;4.67;;;15.70;99.90;;;;;;4989989;28;20485;-68
2023/08/11 01:39:09;;;;;;;4.70;4.23;;;15.60;99.90;;;;;;4991655;28;20254;-68
2023/08/11 01:41:36;;;;;;;6.27;5.40;;;15.60;99.90;;;;;;4991201;28;20446;-70
2023/08/11 01:44:03;;;;;;;6.17;5.67;;;15.50;99.90;;;;;;4990196;28;20518;-69
2023/08/11 01:46:30;;;;;;;6.93;5.43;;;15.40;99.90;;;;;;4989745;28;20423;-69
2023/08/11 01:48:56;;;;;;;6.17;5.40;;;15.40;99.90;;;;;;4988055;28;20459;-69
2023/08/11 01:51:25;;;;;;;6.10;5.50;;;15.40;99.90;;;;;;4991022;28;20985;-69
2023/08/11 01:53:51;;;;;;;5.63;5.23;;;15.40;99.90;;;;;;4992007;28;20542;-70
2023/08/11 01:56:18;;;;;;;6.13;5.53;;;15.40;99.90;;;;;;4991704;28;21031;-69
2023/08/11 01:58:43;;;;;;;8.13;5.40;;;15.40;99.90;;;;;;4988412;28;20450;-69
2023/08/11 02:01:09;;;;;;;5.57;5.07;;;15.40;99.90;;;;;;4991504;28;20877;-68
2023/08/11 02:03:34;;;;;;;5.73;5.23;;;15.40;99.90;;;;;;4988846;28;20184;-69
2023/08/11 02:06:00;;;;;;;6.33;5.73;;;15.40;99.90;;;;;;4986496;28;20649;-69
2023/08/11 02:08:26;;;;;;;5.20;4.80;;;15.40;99.90;;;;;;4985603;28;20558;-69
2023/08/11 02:10:53;;;;;;;5.83;5.27;;;15.30;99.90;;;;;;4986265;28;20191;-69
2023/08/11 02:13:19;;;;;;;6.40;5.90;;;15.30;99.90;;;;;;5000222;28;20188;-68
2023/08/11 02:15:45;;;;;;;6.20;5.60;;;15.20;99.90;;;;;;4988291;28;20458;-69
2023/08/11 02:18:10;;;;;;;5.73;5.17;;;15.20;99.90;;;;;;4990839;28;20462;-70
2023/08/11 02:20:36;;;;;;;6.27;5.23;;;15.10;99.90;;;;;;5005009;28;20203;-69
2023/08/11 02:23:02;;;;;;;11.43;10.33;;;15.00;99.90;;;;;;5004528;28;20175;-69
2023/08/11 02:25:27;;;;;;;10.57;9.47;;;15.00;99.90;;;;;;5003881;28;20182;-69
2023/08/11 02:27:53;;;;;;;9.57;8.07;;;15.00;99.90;;;;;;5012651;28;20191;-69
2023/08/11 02:30:19;;;;;;;9.20;5.40;;;15.00;99.90;;;;;;4992156;28;20661;-69
2023/08/11 02:32:45;;;;;;;6.27;5.37;;;15.00;99.90;;;;;;5002149;28;20179;-70
2023/08/11 02:35:11;;;;;;;5.47;4.93;;;15.00;99.90;;;;;;4992674;28;20187;-68
2023/08/11 02:37:37;;;;;;;7.10;5.37;;;15.00;99.90;;;;;;4991198;28;20493;-68
2023/08/11 02:40:07;;;;;;;5.43;4.70;;;15.00;99.90;;;;;;4996180;28;20202;-70
2023/08/11 02:42:33;;;;;;;8.30;4.60;;;15.00;99.90;;;;;;4991319;28;20191;-69
2023/08/11 02:44:59;;;;;;;5.00;4.50;;;15.00;99.90;;;;;;4992387;28;20427;-69
2023/08/11 02:47:24;;;;;;;5.83;5.40;;;15.10;99.90;;;;;;4991477;28;20206;-69
2023/08/11 02:49:50;;;;;;;5.27;4.77;;;15.00;99.90;;;;;;4990564;28;20273;-68
2023/08/11 02:52:15;;;;;;;5.63;5.00;;;15.00;99.90;;;;;;4990757;28;20184;-68
2023/08/11 02:54:41;;;;;;;6.90;5.50;;;14.90;99.90;;;;;;4991328;28;20187;-69
2023/08/11 02:57:06;;;;;;;4.70;4.30;;;15.00;99.90;;;;;;4991274;28;20195;-69
2023/08/11 02:59:32;;;;;;;5.17;4.60;;;14.90;99.90;;;;;;4989874;28;20262;-69
2023/08/11 03:01:57;;;;;;;6.37;5.30;;;14.90;99.90;;;;;;4987880;28;20206;-69
2023/08/11 03:04:23;;;;;;;6.43;5.10;;;14.90;99.90;;;;;;4988363;28;20676;-70
2023/08/11 03:06:48;;;;;;;6.60;5.30;;;14.90;99.90;;;;;;4988310;28;20172;-69
2023/08/11 03:09:14;;;;;;;5.50;5.10;;;14.90;99.90;;;;;;4986656;28;20258;-69
2023/08/11 03:11:40;;;;;;;5.60;4.80;;;14.80;99.90;;;;;;4986359;28;20249;-69
2023/08/11 03:14:05;;;;;;;6.23;5.73;;;14.80;99.90;;;;;;4985037;28;20258;-71
2023/08/11 03:16:32;;;;;;;5.07;4.57;;;14.70;99.90;;;;;;4984907;28;20558;-70
2023/08/11 03:18:58;;;;;;;6.20;5.57;;;14.70;99.90;;;;;;4982698;28;20731;-69
2023/08/11 03:21:23;;;;;;;5.80;5.30;;;14.70;99.90;;;;;;4984457;28;20530;-70
2023/08/11 03:23:49;;;;;;;6.57;5.10;;;14.80;99.90;;;;;;4986037;28;20258;-69
2023/08/11 03:26:14;;;;;;;5.53;5.10;;;14.70;99.90;;;;;;4985382;28;20193;-69
2023/08/11 03:28:40;;;;;;;5.60;5.10;;;14.70;99.90;;;;;;4984445;28;20207;-70
2023/08/11 03:31:06;;;;;;;5.57;5.00;;;14.70;99.90;;;;;;4984616;28;20180;-70
2023/08/11 03:33:31;;;;;;;6.73;6.13;;;14.40;99.90;;;;;;4985469;28;20640;-70
2023/08/11 03:35:57;;;;;;;6.10;5.50;;;14.70;99.90;;;;;;4984916;28;20190;-69
2023/08/11 03:38:22;;;;;;;5.47;5.07;;;14.70;99.90;;;;;;4983923;28;20282;-69
2023/08/11 03:40:48;;;;;;;6.97;5.47;;;14.60;99.90;;;;;;4983769;28;20568;-69
2023/08/11 03:43:13;;;;;;;6.07;5.40;;;14.60;99.90;;;;;;4985294;28;20171;-70
2023/08/11 03:45:40;;;;;;;6.07;5.57;;;14.60;99.90;;;;;;4988597;28;20550;-69
2023/08/11 03:48:05;;;;;;;7.83;5.50;;;14.60;99.90;;;;;;4989359;28;20716;-69
2023/08/11 03:50:31;;;;;;;5.47;4.97;;;14.60;99.90;;;;;;4990463;28;20497;-69
2023/08/11 03:52:56;;;;;;;6.27;5.67;;;14.60;99.90;;;;;;4987178;28;20229;-70
2023/08/11 03:55:22;;;;;;;5.63;5.23;;;14.60;99.90;;;;;;4989634;28;20226;-70
2023/08/11 03:57:48;;;;;;;4.97;4.57;;;14.60;99.90;;;;;;4989129;28;20266;-69
2023/08/11 04:00:19;;;;;;;6.53;5.50;;;14.60;99.90;;;;;;4987014;28;20275;-70
2023/08/11 04:02:45;;;;;;;7.20;6.60;;;14.60;99.90;;;;;;4986760;28;20179;-70
2023/08/11 04:05:11;;;;;;;7.53;6.80;;;14.50;99.90;;;;;;4990023;28;20433;-69
2023/08/11 04:07:38;;;;;;;5.97;5.37;;;14.50;99.90;;;;;;4986040;28;20518;-71
2023/08/11 04:10:05;;;;;;;6.37;5.77;;;14.60;99.90;;;;;;4984567;28;20298;-70
2023/08/11 04:12:34;;;;;;;5.90;5.40;;;14.60;99.90;;;;;;4983209;28;20856;-69
2023/08/11 04:14:59;;;;;;;7.67;6.60;;;14.70;99.90;;;;;;4992125;28;20427;-69
2023/08/11 04:17:26;;;;;;;6.20;5.60;;;14.60;99.90;;;;;;4990703;28;20430;-69
2023/08/11 04:19:53;;;;;;;6.13;5.20;;;14.70;99.90;;;;;;4999840;28;20210;-69
2023/08/11 04:22:19;;;;;;;7.97;7.27;;;14.70;99.90;;;;;;4990544;28;20439;-70
2023/08/11 04:24:45;;;;;;;6.23;5.27;;;14.70;99.90;;;;;;5013822;28;20426;-70
2023/08/11 04:27:10;;;;;;;8.87;5.13;;;14.70;99.90;;;;;;4997066;28;20500;-69
2023/08/11 04:29:36;;;;;;;6.67;5.33;;;14.70;99.90;;;;;;5005093;28;20211;-69
2023/08/11 04:32:04;;;;;;;6.47;5.87;;;14.80;99.90;;;;;;4990962;28;20191;-70
2023/08/11 04:34:31;;;;;;;6.63;6.03;;;14.90;99.90;;;;;;4989268;28;20180;-70
2023/08/11 04:36:56;;;;;;;5.83;5.33;;;15.00;99.90;;;;;;4990657;28;20485;-70
2023/08/11 04:39:22;;;;;;;7.97;6.30;;;15.10;99.90;;;;;;4990003;28;20462;-70
2023/08/11 04:41:47;;;;;;;8.03;6.70;;;15.20;99.90;;;;;;4990836;28;20634;-69
2023/08/11 04:44:14;;;;;;;9.67;5.47;;;15.40;99.90;;;;;;5006190;28;20242;-69
2023/08/11 04:46:40;;;;;;;6.07;5.67;;;15.70;99.90;;;;;;4990844;28;20182;-70
2023/08/11 04:49:05;;;;;;;6.47;5.87;;;15.50;99.90;;;;;;4987489;28;20474;-72
2023/08/11 04:51:32;;;;;;;6.37;5.77;;;15.70;99.90;;;;;;4991774;28;20184;-71
2023/08/11 04:54:00;;;;;;;7.43;5.67;;;15.60;99.90;;;;;;4994068;28;20176;-71
2023/08/11 04:56:27;;;;;;;6.10;5.50;;;15.90;99.90;;;;;;4994919;28;20446;-70
2023/08/11 04:58:54;;;;;;;8.93;6.03;;;16.00;99.90;;;;;;5002363;28;20545;-71
2023/08/11 05:01:21;;;;;;;7.10;5.70;;;16.20;99.90;;;;;;4995387;28;20505;-71
2023/08/11 05:03:47;;;;;;;6.73;6.10;;;15.90;99.90;;;;;;4992978;28;20434;-67
2023/08/11 05:06:12;;;;;;;7.03;6.43;;;16.20;99.90;;;;;;4994298;28;20434;-70
2023/08/11 05:08:38;;;;;;;6.67;6.17;;;16.40;99.90;;;;;;4993361;28;20223;-69
2023/08/11 05:11:03;;;;;;;6.73;6.00;;;16.50;99.90;;;;;;4993291;28;20196;-70
2023/08/11 05:13:29;;;;;;;5.80;5.30;;;16.60;99.90;;;;;;4994154;28;20522;-70
2023/08/11 05:15:55;;;;;;;7.50;6.10;;;16.70;99.90;;;;;;4993846;28;20180;-70
2023/08/11 05:18:20;;;;;;;7.97;5.70;;;16.70;99.90;;;;;;4994569;28;20204;-70
2023/08/11 05:20:46;;;;;;;7.90;5.80;;;16.90;99.90;;;;;;4994976;28;20672;-71
2023/08/11 05:23:12;;;;;;;6.20;5.23;;;16.90;99.90;;;;;;4995488;28;20175;-70
2023/08/11 05:25:38;;;;;;;6.80;6.20;;;17.10;99.90;;;;;;4995175;28;20434;-71
2023/08/11 05:28:04;;;;;;;6.70;5.67;;;17.20;99.90;;;;;;4996003;28;20482;-70
2023/08/11 05:30:29;;;;;;;6.13;5.63;;;17.40;99.90;;;;;;4994554;28;20468;-70
2023/08/11 05:32:56;;;;;;;7.40;6.70;;;17.40;99.90;;;;;;4994981;28;20171;-71
2023/08/11 05:35:21;;;;;;;5.97;5.37;;;17.50;99.90;;;;;;4993693;28;20187;-71
2023/08/11 05:37:47;;;;;;;7.80;6.60;;;17.60;99.90;;;;;;4994469;28;20430;-71
2023/08/11 05:40:13;;;;;;;6.73;6.10;;;17.70;99.90;;;;;;4993881;28;20227;-70
2023/08/11 05:42:38;;;;;;;9.40;6.50;;;17.80;99.90;;;;;;4994650;28;20215;-71
2023/08/11 05:45:05;;;;;;;7.93;5.90;;;18.00;99.90;;;;;;4994544;28;20551;-71
2023/08/11 05:47:30;;;;;;;7.27;5.53;;;18.00;99.90;;;;;;4994513;28;20703;-71
2023/08/11 05:49:56;;;;;;;11.20;6.10;;;18.10;99.90;;;;;;4992424;28;20545;-71
2023/08/11 05:52:21;;;;;;;6.20;5.60;;;18.30;99.90;;;;;;4994348;28;20195;-70
2023/08/11 05:54:47;;;;;;;6.30;5.53;;;18.50;99.90;;;;;;4994328;28;20250;-71
2023/08/11 05:57:12;;;;;;;5.70;5.13;;;18.60;99.90;;;;;;4994345;28;20665;-71
2023/08/11 05:59:38;;;;;;;5.37;4.93;;;18.80;99.90;;;;;;4993547;28;20786;-71
2023/08/11 06:02:03;;;;;;;7.03;6.43;;;19.10;99.90;;;;;;4993472;28;20300;-71
2023/08/11 06:04:29;;;;;;;5.20;4.80;;;19.30;99.90;;;;;;4993638;28;20548;-71
2023/08/11 06:06:55;;;;;;;5.93;5.43;;;19.40;99.90;;;;;;4994165;28;20215;-71
2023/08/11 06:09:21;;;;;;;6.60;6.10;;;19.50;99.90;;;;;;4993416;28;20274;-71
2023/08/11 06:11:47;;;;;;;10.63;5.40;;;19.70;99.90;;;;;;4993990;28;20186;-71
2023/08/11 06:14:12;;;;;;;6.27;5.40;;;19.80;99.90;;;;;;4993918;28;20789;-71
2023/08/11 06:16:38;;;;;;;6.80;6.30;;;19.90;99.90;;;;;;4993945;28;20225;-71
2023/08/11 06:19:03;;;;;;;5.43;5.03;;;19.80;99.90;;;;;;4992401;28;20316;-71
2023/08/11 06:21:29;;;;;;;8.13;5.00;;;19.80;99.90;;;;;;4993911;28;20178;-71
2023/08/11 06:23:54;;;;;;;5.50;4.97;;;19.90;99.90;;;;;;4993939;28;20249;-71
2023/08/11 06:26:20;;;;;;;5.63;5.00;;;19.90;99.90;;;;;;4993751;28;20182;-71
2023/08/11 06:28:46;;;;;;;5.67;5.20;;;20.10;99.90;;;;;;4992765;28;20213;-71
2023/08/11 06:31:11;;;;;;;6.60;5.80;;;20.40;99.90;;;;;;4993740;28;20175;-72
2023/08/11 06:33:37;;;;;;;10.00;6.87;;;20.70;99.90;;;;;;4992246;28;20191;-72
2023/08/11 06:36:03;;;;;;;7.60;7.00;;;20.70;99.90;;;;;;4992696;28;20193;-71
2023/08/11 06:38:30;;;;;;;9.27;5.23;;;20.90;99.90;;;;;;4992581;28;20214;-72
2023/08/11 06:40:56;;;;;;;6.27;5.70;;;21.20;99.90;;;;;;4993397;28;20330;-72
2023/08/11 06:43:21;;;;;;;5.10;4.60;;;21.50;99.90;;;;;;4992821;28;20439;-72
2023/08/11 06:45:47;;;;;;;6.07;5.60;;;21.80;99.90;;;;;;4993318;28;20175;-71
2023/08/11 06:48:12;;;;;;;6.07;4.60;;;22.00;99.90;;;;;;4992666;28;20199;-71
2023/08/11 06:50:38;;;;;;;10.20;5.43;;;22.30;99.90;;;;;;4993484;28;20172;-72
2023/08/11 06:53:03;;;;;;;6.30;5.53;;;22.40;99.90;;;;;;4993203;28;20186;-72
2023/08/11 06:55:29;;;;;;;5.23;4.83;;;22.20;99.90;;;;;;4993294;28;20254;-72
2023/08/11 06:57:54;;;;;;;4.97;4.57;;;22.30;99.90;;;;;;4992235;28;20715;-72
2023/08/11 07:00:20;;;;;;;7.47;5.73;;;22.30;99.90;;;;;;4992338;28;20750;-72
2023/08/11 07:02:46;;;;;;;5.50;5.00;;;22.50;99.90;;;;;;4993415;28;20178;-71
2023/08/11 07:05:12;;;;;;;6.30;5.43;;;22.60;99.90;;;;;;4993215;28;20959;-72
2023/08/11 07:07:38;;;;;;;5.50;5.10;;;22.60;99.90;;;;;;4993187;28;20198;-72
2023/08/11 07:10:04;;;;;;;6.83;4.30;;;22.70;99.90;;;;;;4992349;28;20457;-72
2023/08/11 07:12:29;;;;;;;4.00;3.60;;;22.80;99.90;;;;;;4992549;28;20171;-72
2023/08/11 07:14:55;;;;;;;6.63;5.00;;;23.30;99.90;;;;;;4992693;28;20484;-72
2023/08/11 07:17:20;;;;;;;5.00;4.60;;;23.90;99.90;;;;;;4993005;28;20178;-71
2023/08/11 07:19:46;;;;;;;4.40;4.00;;;24.20;99.90;;;;;;4992104;28;20569;-72
2023/08/11 07:22:11;;;;;;;6.03;3.83;;;24.50;99.90;;;;;;4991737;28;20171;-71
2023/08/11 07:24:37;;;;;;;4.43;4.03;;;24.70;99.90;;;;;;4992921;28;20259;-71
2023/08/11 07:27:02;;;;;;;5.20;4.00;;;24.90;99.90;;;;;;4992061;28;20226;-72
2023/08/11 07:29:28;;;;;;;5.20;4.50;;;25.00;99.90;;;;;;4991819;28;20246;-71
2023/08/11 07:31:56;;;;;;;5.47;4.70;;;25.30;99.90;;;;;;4992639;28;20637;-71
2023/08/11 07:34:22;;;;;;;6.93;4.33;;;25.50;99.90;;;;;;4992815;28;20575;-72
2023/08/11 07:36:47;;;;;;;5.40;5.00;;;25.60;99.90;;;;;;4992682;28;20425;-72
2023/08/11 07:39:13;;;;;;;4.30;4.00;;;25.90;99.90;;;;;;4991937;28;20207;-72
2023/08/11 07:41:39;;;;;;;5.47;4.33;;;26.20;99.90;;;;;;4992013;28;20175;-72
2023/08/11 07:44:04;;;;;;;5.40;5.00;;;26.10;99.90;;;;;;4992532;28;20665;-72
2023/08/11 07:46:30;;;;;;;4.10;3.70;;;26.20;99.90;;;;;;4992639;28;20179;-71
2023/08/11 07:48:56;;;;;;;4.30;3.90;;;26.50;99.90;;;;;;4991903;28;20281;-72
2023/08/11 07:51:21;;;;;;;4.53;4.10;;;26.80;99.60;;;;;;4992423;28;20656;-72
2023/08/11 07:53:48;;;;;;;4.27;3.97;;;26.80;99.90;;;;;;4992539;28;20175;-72
2023/08/11 07:56:14;;;;;;;7.03;4.87;;;26.90;99.00;;;;;;4991685;28;20188;-72
2023/08/11 07:58:40;;;;;;;4.77;4.43;;;26.80;99.20;;;;;;4991761;28;20978;-71
2023/08/11 08:01:08;;;;;;;4.57;4.13;;;27.20;98.70;;;;;;4992486;28;20290;-72
2023/08/11 08:03:34;;;;;;;4.43;4.07;;;27.30;97.70;;;;;;4992526;28;20183;-72
2023/08/11 08:06:00;;;;;;;4.63;4.23;;;27.40;97.30;;;;;;4992433;28;20520;-71
2023/08/11 08:08:26;;;;;;;5.20;4.83;;;27.40;96.80;;;;;;4991683;28;20983;-71
2023/08/11 08:10:51;;;;;;;4.77;4.33;;;27.60;96.00;;;;;;4991665;28;20203;-72
2023/08/11 08:13:17;;;;;;;4.40;4.00;;;27.90;95.40;;;;;;4991321;28;20172;-72
2023/08/11 08:15:43;;;;;;;6.37;5.87;;;28.20;94.10;;;;;;4992218;28;20178;-72
2023/08/11 08:18:08;;;;;;;5.57;5.17;;;28.20;93.30;;;;;;4992087;28;20266;-72
2023/08/11 08:20:34;;;;;;;4.83;4.47;;;28.10;93.40;;;;;;4990414;28;20211;-72
2023/08/11 08:23:00;;;;;;;4.03;3.73;;;28.30;93.30;;;;;;4991122;28;20168;-72
2023/08/11 08:25:25;;;;;;;4.80;4.30;;;28.50;93.00;;;;;;4993556;28;20222;-72
2023/08/11 08:27:51;;;;;;;4.47;4.17;;;28.50;92.60;;;;;;4995228;28;20637;-72
2023/08/11 08:30:16;;;;;;;4.90;4.50;;;28.70;91.90;;;;;;4994711;28;20222;-72
2023/08/11 08:32:42;;;;;;;4.83;4.33;;;29.10;91.80;;;;;;4995945;28;20259;-72
2023/08/11 08:35:09;;;;;;;4.20;3.90;;;29.40;89.50;;;;;;4996257;28;20587;-72
2023/08/11 08:37:35;;;;;;;4.70;4.30;;;29.60;87.80;;;;;;4995934;28;20226;-72
2023/08/11 08:40:01;;;;;;;5.50;5.00;;;29.80;86.30;;;;;;4993554;28;21290;-72
2023/08/11 08:42:27;;;;;;;5.53;5.03;;;29.80;86.20;;;;;;4995547;28;20419;-72
2023/08/11 08:44:54;;;;;;;4.57;4.27;;;29.40;87.50;;;;;;4995958;28;20626;-71
2023/08/11 08:47:20;;;;;;;4.50;4.20;;;29.60;87.00;;;;;;4995690;28;20422;-71
2023/08/11 08:49:48;;;;;;;5.13;4.63;;;30.00;83.80;;;;;;4994997;28;20499;-72
2023/08/11 08:52:14;;;;;;;4.70;4.10;;;29.70;82.30;;;;;;4995626;28;20422;-71
2023/08/11 08:54:41;;;;;;;4.60;4.30;;;30.10;81.40;;;;;;4994981;28;20434;-72
2023/08/11 08:57:09;;;;;;;4.80;4.30;;;30.30;80.20;;;;;;4995550;28;20183;-72
2023/08/11 08:59:34;;;;;;;4.90;4.40;;;30.60;79.40;;;;;;4994587;28;20458;-72
2023/08/11 09:02:00;;;;;;;4.90;4.10;;;30.50;77.90;;;;;;4995546;28;20449;-71
2023/08/11 09:04:27;;;;;;;5.03;4.50;;;30.40;77.50;;;;;;4995385;28;20203;-71
2023/08/11 09:06:55;;;;;;;4.77;4.37;;;30.60;77.70;;;;;;4995307;28;20419;-72
2023/08/11 09:09:21;;;;;;;4.40;3.83;;;31.00;76.50;;;;;;4993624;28;20497;-71
2023/08/11 09:11:48;;;;;;;5.00;4.63;;;31.10;75.00;;;;;;4995215;28;20451;-71
2023/08/11 09:14:14;;;;;;;4.70;4.30;;;31.40;75.40;;;;;;4995228;28;20174;-71
2023/08/11 09:16:41;;;;;;;4.40;4.00;;;31.30;73.70;;;;;;4995339;28;20439;-71
2023/08/11 09:19:10;;;;;;;4.47;4.03;;;31.20;73.20;;;;;;4994268;28;20459;-72
2023/08/11 09:21:35;;;;;;;5.67;5.17;;;31.10;73.20;;;;;;4995125;28;20426;-71
2023/08/11 09:24:02;;;;;;;4.93;4.60;;;30.50;74.40;;;;;;4994227;28;20434;-71
2023/08/11 09:26:28;;;;;;;4.57;4.17;;;31.00;74.00;;;;;;4994821;28;20171;-72
2023/08/11 09:28:55;;;;;;;5.60;4.37;;;31.00;72.30;;;;;;4994143;28;21100;-72
2023/08/11 09:31:24;;;;;;;4.60;4.20;;;30.60;73.10;;;;;;4994894;28;20481;-72
2023/08/11 09:33:51;;;;;;;5.30;4.80;;;30.30;75.20;;;;;;4994921;28;20480;-71
2023/08/11 09:36:18;;;;;;;4.60;4.23;;;30.70;73.30;;;;;;4992783;28;20465;-72
2023/08/11 09:38:45;;;;;;;5.50;4.53;;;30.80;72.70;;;;;;4991167;28;20827;-72
2023/08/11 09:41:12;;;;;;;6.30;4.87;;;31.30;71.40;;;;;;4990029;28;20470;-72
2023/08/11 09:43:38;;;;;;;5.83;4.23;;;32.40;70.10;;;;;;5001721;28;20430;-71
2023/08/11 09:46:04;;;;;;;6.40;4.60;;;33.40;66.10;;;;;;5009210;28;20509;-72
2023/08/11 09:48:31;;;;;;;10.33;5.20;;;34.20;63.70;;;;;;5010946;28;20195;-72
2023/08/11 09:50:57;;;;;;;4.90;4.60;;;34.70;60.70;;;;;;5012451;28;20182;-72
2023/08/11 09:53:24;;;;;;;5.17;4.67;;;35.00;59.20;;;;;;5013625;28;20438;-72
2023/08/11 09:55:52;;;;;;;4.57;4.27;;;34.90;57.50;;;;;;5012637;28;20427;-71
2023/08/11 09:58:19;;;;;;;6.00;5.53;;;35.50;56.60;;;;;;4997123;28;20529;-71
2023/08/11 10:00:48;;;;;;;5.10;4.70;;;36.00;55.30;;;;;;4994334;28;20995;-72
2023/08/11 10:03:20;;;;;;;4.53;4.23;;;35.90;53.30;;;;;;4994238;28;20966;-72
2023/08/11 10:05:49;;;;;;;6.30;4.90;;;36.40;53.30;;;;;;4994363;28;20477;-72
2023/08/11 10:08:19;;;;;;;4.93;4.53;;;35.80;52.40;;;;;;4990997;28;20875;-71
2023/08/11 10:10:45;;;;;;;5.60;4.23;;;36.60;51.50;;;;;;4992962;28;20874;-71
2023/08/11 10:13:23;;;;;;;4.77;4.47;;;37.50;49.80;;;;;;4993953;28;20433;-71
2023/08/11 10:15:50;;;;;;;4.37;3.97;;;36.80;49.80;;;;;;4993931;28;20426;-71
2023/08/11 10:18:16;;;;;;;4.73;4.17;;;38.20;48.30;;;;;;4993071;28;20890;-72
2023/08/11 10:20:42;;;;;;;5.07;4.67;;;39.30;45.90;;;;;;4992591;28;20831;-69
2023/08/11 10:23:08;;;;;;;4.03;3.83;;;39.70;45.60;;;;;;4993891;28;20418;-70
2023/08/11 10:25:35;;;;;;;4.30;3.90;;;39.10;43.00;;;;;;4993037;28;20238;-69
2023/08/11 10:28:02;;;;;;;4.30;4.00;;;38.60;44.20;;;;;;4993495;28;21002;-70
2023/08/11 10:30:28;;;;;;;4.77;4.47;;;38.90;43.40;;;;;;4993157;28;20884;-69
2023/08/11 10:33:06;;;;;;;4.90;4.57;;;40.30;41.80;;;;;;4993650;28;20466;-69
2023/08/11 10:35:34;;;;;;;4.80;4.50;;;40.50;40.80;;;;;;4992463;28;20578;-70
2023/08/11 10:38:00;;;;;;;4.83;4.43;;;40.90;40.30;;;;;;4993610;28;20454;-69
2023/08/11 10:40:38;;;;;;;4.00;3.70;;;42.00;38.60;;;;;;4992864;28;20466;-70
2023/08/11 10:43:04;;;;;;;4.53;4.33;;;42.50;38.40;;;;;;4991935;28;20249;-69
2023/08/11 10:45:35;;;;;;;5.40;4.87;;;42.50;37.70;;;;;;4993441;28;20935;-71
2023/08/11 10:48:07;;;;;;;4.40;4.10;;;41.90;36.80;;;;;;4993425;28;20199;-71
2023/08/11 10:50:34;;;;;;;5.57;5.07;;;41.00;37.90;;;;;;4993082;28;20422;-70
2023/08/11 10:53:27;;;;;;;5.40;4.90;;;42.00;37.70;;;;;;4993388;28;20493;-70
2023/08/11 10:56:00;;;;;;;5.10;4.70;;;40.80;36.50;;;;;;4993057;28;20438;-70
2023/08/11 10:58:29;;;;;;;4.20;3.90;;;41.80;36.70;;;;;;4991205;28;20831;-70
2023/08/11 11:00:56;;;;;;;4.77;4.37;;;42.40;35.80;;;;;;4993075;28;20462;-70
2023/08/11 11:03:22;;;;;;;5.60;5.20;;;42.60;35.70;;;;;;4993190;28;20510;-71
2023/08/11 11:05:48;;;;;;;4.87;4.43;;;43.30;35.10;;;;;;4993249;28;20987;-70
2023/08/11 11:08:13;;;;;;;8.63;5.90;;;44.00;34.60;;;;;;4992548;28;20214;-70
2023/08/11 11:10:41;;;;;;;5.33;4.83;;;44.10;33.80;;;;;;4992407;28;20175;-70
2023/08/11 11:13:06;;;;;;;5.03;4.73;;;44.60;33.50;;;;;;4984721;28;20187;-70
2023/08/11 11:15:33;;;;;;;4.90;4.47;;;44.30;32.80;;;;;;4991714;28;20454;-70
2023/08/11 11:17:59;;;;;;;4.63;4.33;;;43.40;33.60;;;;;;4992696;28;20258;-70
2023/08/11 11:20:25;;;;;;;5.70;5.30;;;42.40;34.30;;;;;;4992124;28;20959;-70
2023/08/11 11:22:51;;;;;;;5.63;4.73;;;42.60;34.60;;;;;;4992960;28;20423;-70
2023/08/11 11:25:18;;;;;;;5.37;5.07;;;42.90;33.80;;;;;;4992131;28;20427;-70
2023/08/11 11:27:44;;;;;;;5.20;4.90;;;42.90;33.50;;;;;;4992065;28;20195;-70
2023/08/11 11:30:10;;;;;;;5.47;5.17;;;43.60;32.90;;;;;;4992595;28;20506;-70
2023/08/11 11:32:37;;;;;;;7.30;4.80;;;43.60;32.70;;;;;;4992751;28;20431;-70
2023/08/11 11:35:04;;;;;;;5.40;4.90;;;43.70;32.70;;;;;;4992825;28;20794;-70
2023/08/11 11:37:32;;;;;;;5.47;4.93;;;43.70;32.50;;;;;;4991479;28;20437;-70
2023/08/11 11:39:58;;;;;;;6.27;5.00;;;44.30;32.20;;;;;;4990893;28;20519;-70
2023/08/11 11:42:29;;;;;;;4.73;4.43;;;45.20;31.30;;;;;;4992226;28;20473;-70
2023/08/11 11:44:55;;;;;;;5.70;5.10;;;45.00;31.00;;;;;;4990975;28;20669;-69
2023/08/11 11:47:21;;;;;;;6.23;5.73;;;44.70;30.80;;;;;;4992538;28;20890;-70
2023/08/11 11:49:57;;;;;;;6.60;6.20;;;44.40;31.10;;;;;;4991985;28;20533;-70
2023/08/11 11:52:23;;;;;;;5.53;5.13;;;44.80;31.00;;;;;;4992720;28;20171;-70
2023/08/11 11:54:52;;;;;;;5.40;5.00;;;45.20;30.50;;;;;;4990393;28;20450;-70
2023/08/11 11:57:18;;;;;;;4.60;4.30;;;45.50;30.20;;;;;;4992081;28;20179;-70
2023/08/11 11:59:48;;;;;;;4.60;4.40;;;46.50;29.70;;;;;;4990343;28;20596;-70
2023/08/11 12:02:17;;;;;;;5.27;4.90;;;47.40;28.90;;;;;;4996465;28;20927;-70
2023/08/11 12:04:44;;;;;;;5.90;5.53;;;47.30;28.40;;;;;;4994817;28;20517;-70
2023/08/11 12:07:09;;;;;;;4.53;4.33;;;45.70;28.70;;;;;;4996620;28;20431;-70
2023/08/11 12:09:51;;;;;;;5.13;4.83;;;45.20;29.50;;;;;;4995565;28;20840;-70
2023/08/11 12:12:17;;;;;;;6.03;5.53;;;46.60;29.00;;;;;;4996354;28;20646;-70
2023/08/11 12:14:42;;;;;;;5.67;5.30;;;46.80;28.70;;;;;;4996379;28;20516;-70
2023/08/11 12:17:08;;;;;;;5.10;4.83;;;47.00;28.50;;;;;;4996319;28;20237;-70
2023/08/11 12:19:34;;;;;;;6.57;5.97;;;47.40;28.20;;;;;;4994746;28;20342;-70
2023/08/11 12:22:00;;;;;;;5.20;4.80;;;48.10;27.60;;;;;;4996443;28;20194;-70
2023/08/11 12:24:26;;;;;;;5.17;4.87;;;47.30;27.70;;;;;;4996485;28;20186;-70
2023/08/11 12:26:51;;;;;;;4.83;4.53;;;47.40;27.90;;;;;;4996102;28;20513;-70
2023/08/11 12:29:17;;;;;;;5.33;5.03;;;46.10;28.20;;;;;;4995157;28;20255;-70
2023/08/11 12:31:43;;;;;;;5.40;5.10;;;46.00;28.40;;;;;;4995804;28;20182;-70
2023/08/11 12:34:08;;;;;;;4.97;4.67;;;46.90;28.00;;;;;;4996075;28;20586;-70
2023/08/11 12:36:33;;;;;;;5.07;4.67;;;47.10;27.70;;;;;;4994350;28;20274;-70
2023/08/11 12:38:59;;;;;;;5.07;4.80;;;47.70;27.70;;;;;;4994479;28;20575;-70
2023/08/11 12:41:25;;;;;;;5.17;4.73;;;47.80;27.30;;;;;;4991623;28;20187;-67